createdAt,value
2022-10-19T04:00:51.942Z,8.00
2022-10-19T04:03:23.511Z,8.00
2022-10-19T04:06:01.130Z,7.90
2022-10-19T04:08:32.661Z,7.90
2022-10-19T04:11:04.575Z,7.90
2022-10-19T04:13:36.100Z,7.90
2022-10-19T04:16:09.469Z,7.90
2022-10-19T04:18:40.983Z,7.90
2022-10-19T04:21:19.263Z,7.90
2022-10-19T04:23:50.854Z,7.90
2022-10-19T04:26:22.352Z,7.90
2022-10-19T04:28:53.904Z,7.80
2022-10-19T04:31:26.839Z,7.80
2022-10-19T04:33:58.352Z,7.80
2022-10-19T04:36:29.861Z,7.80
2022-10-19T04:39:01.391Z,7.80
2022-10-19T04:41:32.901Z,7.80
2022-10-19T04:44:04.884Z,7.70
2022-10-19T04:46:37.743Z,7.70
2022-10-19T04:49:09.260Z,7.80
2022-10-19T04:51:40.786Z,7.80
2022-10-19T04:54:12.322Z,7.80
2022-10-19T04:56:43.837Z,7.80
2022-10-19T04:59:15.367Z,7.80
2022-10-19T05:01:48.212Z,7.80
2022-10-19T05:04:19.726Z,7.80
2022-10-19T05:06:51.223Z,7.80
2022-10-19T05:09:22.763Z,7.70
2022-10-19T05:11:54.278Z,7.70
2022-10-19T05:14:25.811Z,7.70
2022-10-19T05:16:58.693Z,7.70
2022-10-19T05:19:30.225Z,7.70
2022-10-19T05:22:01.736Z,7.70
2022-10-19T05:24:33.282Z,7.70
2022-10-19T05:27:04.803Z,7.60
2022-10-19T05:29:36.316Z,7.60
2022-10-19T05:32:09.198Z,7.60
2022-10-19T05:34:40.739Z,7.50
2022-10-19T05:37:12.256Z,7.50
2022-10-19T05:39:43.779Z,7.50
2022-10-19T05:42:15.283Z,7.40
2022-10-19T05:44:46.809Z,7.40
2022-10-19T05:47:19.664Z,7.40
2022-10-19T05:49:51.179Z,7.40
2022-10-19T05:52:22.692Z,7.30
2022-10-19T05:54:54.213Z,7.30
2022-10-19T05:57:25.744Z,7.40
2022-10-19T05:59:57.248Z,7.30
2022-10-19T06:02:30.120Z,7.30
2022-10-19T06:05:01.643Z,7.30
2022-10-19T06:07:33.719Z,7.30
2022-10-19T06:10:05.956Z,7.30
2022-10-19T06:12:37.534Z,7.30
2022-10-19T06:15:09.450Z,7.20
2022-10-19T06:17:42.312Z,7.20
2022-10-19T06:20:13.892Z,7.20
2022-10-19T06:22:45.415Z,7.20
2022-10-19T06:25:19.563Z,7.30
2022-10-19T06:27:52.027Z,7.30
2022-10-19T06:30:23.590Z,7.30
2022-10-19T06:32:56.589Z,7.40
2022-10-19T06:35:28.164Z,7.50
2022-10-19T06:37:59.761Z,7.60
2022-10-19T06:40:31.285Z,7.80
2022-10-19T06:43:02.852Z,7.90
2022-10-19T06:45:36.026Z,8.10
2022-10-19T06:48:09.055Z,8.20
2022-10-19T06:50:40.559Z,8.40
2022-10-19T06:53:12.088Z,8.50
2022-10-19T06:55:43.599Z,8.50
2022-10-19T06:58:15.110Z,8.50
2022-10-19T07:00:53.598Z,8.40
2022-10-19T07:03:26.583Z,8.40
2022-10-19T07:05:58.469Z,8.40
2022-10-19T07:08:30.237Z,8.50
2022-10-19T07:11:02.244Z,8.50
2022-10-19T07:13:33.810Z,8.50
2022-10-19T07:16:06.005Z,8.60
2022-10-19T07:18:39.187Z,8.60
2022-10-19T07:21:11.088Z,8.60
2022-10-19T07:23:42.914Z,8.70
2022-10-19T07:26:15.061Z,8.80
2022-10-19T07:28:46.751Z,8.90
2022-10-19T07:31:18.887Z,9.10
2022-10-19T07:33:52.891Z,9.30
2022-10-19T07:36:24.583Z,9.20
2022-10-19T07:38:56.134Z,9.30
2022-10-19T07:41:27.640Z,9.30
2022-10-19T07:43:59.151Z,9.30
2022-10-19T07:46:31.045Z,9.30
2022-10-19T07:49:04.400Z,9.30
2022-10-19T07:51:36.013Z,9.40
2022-10-19T07:54:07.569Z,9.40
2022-10-19T07:56:39.297Z,9.50
2022-10-19T07:59:10.808Z,9.50
2022-10-19T08:01:42.351Z,9.60
2022-10-19T08:07:06.741Z,9.70
2022-10-19T08:09:52.636Z,9.70
2022-10-19T08:12:24.548Z,9.70
2022-10-19T08:14:56.209Z,9.70
2022-10-19T08:17:27.873Z,9.70
2022-10-19T08:20:01.049Z,9.80
2022-10-19T08:22:33.081Z,9.80
2022-10-19T08:25:05.858Z,9.80
2022-10-19T08:27:37.543Z,10.00
2022-10-19T08:30:09.845Z,10.00
2022-10-19T08:32:41.549Z,10.10
2022-10-19T08:35:14.595Z,10.10
2022-10-19T08:37:46.497Z,10.10
2022-10-19T08:40:19.292Z,10.20
2022-10-19T08:42:52.836Z,10.20
2022-10-19T08:45:38.944Z,10.30
2022-10-19T08:48:19.058Z,10.30
2022-10-19T08:50:52.087Z,10.40
2022-10-19T08:53:27.235Z,10.40
2022-10-19T08:56:05.008Z,10.50
2022-10-19T08:58:45.539Z,10.50
2022-10-19T09:01:23.927Z,10.50
2022-10-19T09:03:58.933Z,10.60
2022-10-19T09:06:34.667Z,10.60
2022-10-19T09:09:06.363Z,10.60
2022-10-19T09:11:39.288Z,10.80
2022-10-19T09:14:12.928Z,10.90
2022-10-19T09:16:44.571Z,10.80
2022-10-19T09:19:20.732Z,10.90
2022-10-19T09:21:55.460Z,11.00
2022-10-19T09:24:29.037Z,11.00
2022-10-19T09:27:01.238Z,11.10
2022-10-19T09:29:37.082Z,11.10
2022-10-19T09:32:12.879Z,11.10
2022-10-19T09:34:45.312Z,11.30
2022-10-19T09:37:25.685Z,11.30
2022-10-19T09:39:58.116Z,11.40
2022-10-19T09:42:31.023Z,11.40
2022-10-19T09:45:11.161Z,11.50
2022-10-19T09:47:42.875Z,11.50
2022-10-19T09:50:16.797Z,11.50
2022-10-19T09:52:50.171Z,11.60
2022-10-19T09:55:29.458Z,11.60
2022-10-19T09:58:03.139Z,11.70
2022-10-19T10:00:36.646Z,11.70
2022-10-19T10:03:08.502Z,11.80
2022-10-19T10:05:40.234Z,11.90
2022-10-19T10:08:14.511Z,12.00
2022-10-19T10:10:46.879Z,12.00
2022-10-19T10:13:19.503Z,12.00
2022-10-19T10:15:56.052Z,12.10
2022-10-19T10:18:28.158Z,12.20
2022-10-19T10:21:01.865Z,12.20
2022-10-19T10:23:35.012Z,12.40
2022-10-19T10:26:16.213Z,12.40
2022-10-19T10:28:48.592Z,12.40
2022-10-19T10:31:22.289Z,12.50
2022-10-19T10:33:55.790Z,12.50
2022-10-19T10:36:27.957Z,12.60
2022-10-19T10:39:05.670Z,12.60
2022-10-19T10:41:37.901Z,12.70
2022-10-19T10:44:17.302Z,12.80
2022-10-19T10:46:52.738Z,12.80
2022-10-19T10:49:25.406Z,12.90
2022-10-19T10:51:57.591Z,12.90
2022-10-19T10:54:31.036Z,13.00
2022-10-19T10:57:11.217Z,13.00
2022-10-19T10:59:51.897Z,13.10
2022-10-19T11:02:37.063Z,13.20
2022-10-19T11:05:11.889Z,13.20
2022-10-19T11:07:44.625Z,13.30
2022-10-19T11:10:22.403Z,13.40
2022-10-19T11:12:58.604Z,13.40
2022-10-19T11:15:31.859Z,13.50
2022-10-19T11:18:11.553Z,13.60
2022-10-19T11:20:58.131Z,13.60
2022-10-19T11:26:20.019Z,13.80
2022-10-19T11:28:59.065Z,13.90
2022-10-19T11:31:36.850Z,13.90
2022-10-19T11:34:16.086Z,13.90
2022-10-19T11:36:50.837Z,14.00
2022-10-19T11:39:35.079Z,14.00
2022-10-19T11:42:11.673Z,14.10
2022-10-19T11:44:49.939Z,14.20
2022-10-19T11:47:34.230Z,14.20
2022-10-19T11:50:27.110Z,14.30
2022-10-19T11:53:06.846Z,14.40
2022-10-19T11:55:41.971Z,14.40
2022-10-19T11:58:35.294Z,14.50
2022-10-19T12:04:20.218Z,14.70
2022-10-19T12:06:57.180Z,14.80
2022-10-19T12:09:43.301Z,14.70
2022-10-19T12:12:21.712Z,14.70
2022-10-19T12:14:56.934Z,14.80
2022-10-19T12:17:30.681Z,14.80
2022-10-19T12:20:03.279Z,14.80
2022-10-19T12:22:34.936Z,14.90
2022-10-19T12:25:06.965Z,14.90
2022-10-19T12:27:38.976Z,15.00
2022-10-19T12:30:15.506Z,15.00
2022-10-19T12:32:58.316Z,15.10
2022-10-19T12:35:41.085Z,15.10
2022-10-19T12:38:19.102Z,15.10
2022-10-19T12:40:53.278Z,15.10
2022-10-19T12:43:27.615Z,15.20
2022-10-19T12:46:07.164Z,15.20
2022-10-19T12:48:39.025Z,15.30
2022-10-19T12:51:12.669Z,15.20
2022-10-19T12:53:46.284Z,15.30
2022-10-19T12:56:19.739Z,15.30
2022-10-19T12:58:55.717Z,15.30
2022-10-19T13:01:29.461Z,15.40
2022-10-19T13:04:11.084Z,15.40
2022-10-19T13:06:43.260Z,15.50
2022-10-19T13:09:23.508Z,15.40
2022-10-19T13:12:26.728Z,15.50
2022-10-19T13:14:58.521Z,15.50
2022-10-19T13:17:41.224Z,15.60
2022-10-19T13:20:50.287Z,15.60
2022-10-19T13:23:39.442Z,15.90
2022-10-19T13:26:24.785Z,15.50
2022-10-19T13:28:56.605Z,15.60
2022-10-19T13:31:29.026Z,15.60
2022-10-19T13:34:02.021Z,15.60
2022-10-19T13:36:33.693Z,15.70
2022-10-19T13:39:15.111Z,15.70
2022-10-19T13:41:50.655Z,15.70
2022-10-19T13:44:24.406Z,15.70
2022-10-19T13:47:33.310Z,15.70
2022-10-19T13:50:35.677Z,15.70
2022-10-19T13:53:28.530Z,15.70
2022-10-19T13:56:29.985Z,15.80
2022-10-19T13:59:32.239Z,15.80
2022-10-19T14:02:43.373Z,15.80
2022-10-19T14:05:24.843Z,15.80
2022-10-19T14:08:03.564Z,15.90
2022-10-19T14:10:56.190Z,15.90
2022-10-19T14:13:26.864Z,15.90
2022-10-19T14:15:59.398Z,16.00
2022-10-19T14:18:31.789Z,16.00
2022-10-19T14:21:05.044Z,16.00
2022-10-19T14:23:38.522Z,16.00
2022-10-19T14:26:13.876Z,16.00
2022-10-19T14:28:45.526Z,16.00
2022-10-19T14:31:18.399Z,16.00
2022-10-19T14:33:51.155Z,16.00
2022-10-19T14:36:23.727Z,16.10
2022-10-19T14:38:56.756Z,16.10
2022-10-19T14:41:31.908Z,16.10
2022-10-19T14:44:27.656Z,16.10
2022-10-19T14:47:00.642Z,16.10
2022-10-19T14:49:32.284Z,16.10
2022-10-19T14:52:03.979Z,16.20
2022-10-19T14:54:38.776Z,16.20
2022-10-19T14:57:12.410Z,16.20
2022-10-19T14:59:45.273Z,16.20
2022-10-19T15:02:18.819Z,16.20
2022-10-19T15:04:50.481Z,16.20
2022-10-19T15:07:24.426Z,16.30
2022-10-19T15:09:59.278Z,16.30
2022-10-19T15:12:35.150Z,16.30
2022-10-19T15:15:09.032Z,16.40
2022-10-19T15:17:49.819Z,16.40
2022-10-19T15:20:26.587Z,16.40
2022-10-19T15:22:58.420Z,16.40
2022-10-19T15:25:33.090Z,16.40
2022-10-19T15:28:20.731Z,16.40
2022-10-19T15:31:00.644Z,16.40
2022-10-19T15:33:37.216Z,16.30
2022-10-19T15:36:09.961Z,16.30
2022-10-19T15:38:41.595Z,16.20
2022-10-19T15:41:18.384Z,16.20
2022-10-19T15:43:50.791Z,16.10
2022-10-19T15:46:24.632Z,16.00
2022-10-19T15:48:56.588Z,15.90
2022-10-19T15:51:46.088Z,15.90
2022-10-19T15:54:18.069Z,15.80
2022-10-19T15:56:52.236Z,15.80
2022-10-19T15:59:23.892Z,15.70
2022-10-19T16:01:56.341Z,15.70
2022-10-19T16:04:28.131Z,15.70
2022-10-19T16:06:59.805Z,15.60
2022-10-19T16:09:31.513Z,15.50
2022-10-19T16:12:04.744Z,15.50
2022-10-19T16:14:36.774Z,15.40
2022-10-19T16:17:09.458Z,15.30
2022-10-19T16:19:41.184Z,15.20
2022-10-19T16:22:13.258Z,15.20
2022-10-19T16:24:44.905Z,15.10
2022-10-19T16:27:17.893Z,15.00
2022-10-19T16:29:49.539Z,15.00
2022-10-19T16:32:21.202Z,14.90
2022-10-19T16:34:52.822Z,14.80
2022-10-19T16:37:24.477Z,14.80
2022-10-19T16:39:56.131Z,14.80
2022-10-19T16:42:30.560Z,14.70
2022-10-19T16:45:02.374Z,14.60
2022-10-19T16:47:34.046Z,14.70
2022-10-19T16:50:06.394Z,14.60
2022-10-19T16:52:38.309Z,14.60
2022-10-19T16:55:10.238Z,14.60
2022-10-19T16:57:43.275Z,14.60
2022-10-19T17:00:15.001Z,14.50
2022-10-19T17:02:46.799Z,14.50
2022-10-19T17:05:18.510Z,14.40
2022-10-19T17:07:50.167Z,14.40
2022-10-19T17:10:21.833Z,14.30
2022-10-19T17:12:54.859Z,14.30
2022-10-19T17:15:43.209Z,14.20
2022-10-19T17:18:15.124Z,14.20
2022-10-19T17:20:46.973Z,14.10
2022-10-19T17:23:18.636Z,14.10
2022-10-19T17:25:50.295Z,14.00
2022-10-19T17:28:25.483Z,14.00
2022-10-19T17:31:03.163Z,13.90
2022-10-19T17:33:35.335Z,13.90
2022-10-19T17:36:07.834Z,13.80
2022-10-19T17:38:39.655Z,13.80
2022-10-19T17:41:12.121Z,13.80
2022-10-19T17:43:46.238Z,13.70
2022-10-19T17:46:18.697Z,13.70
2022-10-19T17:48:50.331Z,13.60
2022-10-19T17:51:22.718Z,13.60
2022-10-19T17:53:55.864Z,13.60
2022-10-19T17:56:27.639Z,13.50
2022-10-19T17:59:00.635Z,13.50
2022-10-19T18:01:32.310Z,13.50
2022-10-19T18:04:04.469Z,13.40
2022-10-19T18:06:36.687Z,13.40
2022-10-19T18:09:08.933Z,13.40
2022-10-19T18:11:41.495Z,13.40
2022-10-19T18:14:14.509Z,13.30
2022-10-19T18:16:46.346Z,13.30
2022-10-19T18:19:17.971Z,13.30
2022-10-19T18:21:49.608Z,13.20
2022-10-19T18:24:21.254Z,13.20
2022-10-19T18:26:52.904Z,13.10
2022-10-19T18:29:25.979Z,13.10
2022-10-19T18:31:57.698Z,13.10
2022-10-19T18:34:29.486Z,13.00
2022-10-19T18:37:01.150Z,13.00
2022-10-19T18:39:32.811Z,13.00
2022-10-19T18:42:04.455Z,12.90
2022-10-19T18:44:37.428Z,12.90
2022-10-19T18:47:09.074Z,12.80
2022-10-19T18:49:40.699Z,12.80
2022-10-19T18:52:12.358Z,12.70
2022-10-19T18:54:43.994Z,12.70
2022-10-19T18:57:15.673Z,12.70
2022-10-19T18:59:48.880Z,12.60
2022-10-19T19:02:22.712Z,12.50
2022-10-19T19:04:54.504Z,12.50
2022-10-19T19:07:26.161Z,12.50
2022-10-19T19:09:57.793Z,12.40
2022-10-19T19:12:29.434Z,12.40
2022-10-19T19:15:02.411Z,12.30
2022-10-19T19:17:34.091Z,12.30
2022-10-19T19:20:06.406Z,12.30
2022-10-19T19:22:38.278Z,12.20
2022-10-19T19:25:09.984Z,12.20
2022-10-19T19:27:41.643Z,12.10
2022-10-19T19:30:14.688Z,12.10
2022-10-19T19:32:46.342Z,12.10
2022-10-19T19:35:17.973Z,12.10
2022-10-19T19:37:49.618Z,12.10
2022-10-19T19:40:21.273Z,12.10
2022-10-19T19:42:52.935Z,12.00
2022-10-19T19:45:25.941Z,12.00
2022-10-19T19:47:57.622Z,12.00
2022-10-19T19:50:29.323Z,12.00
2022-10-19T19:53:01.260Z,11.90
2022-10-19T19:55:36.673Z,11.90
2022-10-19T19:58:10.612Z,11.90
2022-10-19T20:00:43.607Z,11.90
2022-10-19T20:03:15.245Z,11.90
2022-10-19T20:05:46.883Z,11.80
2022-10-19T20:08:18.512Z,11.80
2022-10-19T20:10:50.162Z,11.80
2022-10-19T20:13:21.797Z,11.80
2022-10-19T20:15:54.798Z,11.70
2022-10-19T20:18:26.411Z,11.70
2022-10-19T20:21:00.924Z,11.70
2022-10-19T20:23:32.729Z,11.70
2022-10-19T20:26:04.479Z,11.70
2022-10-19T20:28:36.085Z,11.70
2022-10-19T20:31:09.987Z,11.60
2022-10-19T20:33:42.446Z,11.60
2022-10-19T20:36:15.339Z,11.60
2022-10-19T20:38:47.843Z,11.60
2022-10-19T20:41:20.197Z,11.60
2022-10-19T20:43:51.836Z,11.60
2022-10-19T20:46:25.816Z,11.50
2022-10-19T20:48:58.380Z,11.50
2022-10-19T20:51:32.031Z,11.50
2022-10-19T20:54:05.245Z,11.50
2022-10-19T20:56:37.929Z,11.50
2022-10-19T20:59:11.531Z,11.40
2022-10-19T21:01:44.805Z,11.40
2022-10-19T21:04:16.586Z,11.40
2022-10-19T21:06:49.024Z,11.40
2022-10-19T21:09:21.574Z,11.40
2022-10-19T21:11:53.234Z,11.40
2022-10-19T21:14:28.322Z,11.40
2022-10-19T21:17:01.640Z,11.30
2022-10-19T21:19:33.255Z,11.30
2022-10-19T21:22:04.894Z,11.30
2022-10-19T21:24:36.563Z,11.30
2022-10-19T21:27:08.455Z,11.30
2022-10-19T21:29:40.280Z,11.30
2022-10-19T21:32:13.275Z,11.30
2022-10-19T21:34:44.912Z,11.30
2022-10-19T21:37:16.551Z,11.20
2022-10-19T21:39:48.172Z,11.20
2022-10-19T21:42:19.807Z,11.20
2022-10-19T21:44:54.009Z,11.20
2022-10-19T21:47:34.372Z,11.10
2022-10-19T21:50:07.556Z,11.10
2022-10-19T21:52:39.210Z,11.10
2022-10-19T21:55:10.966Z,11.00
2022-10-19T21:57:42.636Z,11.00
